Time;durP1;ratioP1;P1;durP2;ratioP2;P2;SDS_P1;SDS_P2;PMS_P1;PMS_P2;Temp;Humidity;BMP_temperature;BMP_pressure;BME280_temperature;BME280_humidity;BME280_pressure;Samples;Min_cycle;Max_cycle;Signal;HPM_P1;HPM_P2
2021/12/15 00:01:00;;;;;;;136.40;48.50;;;9.90;99.90;;;;;;4941647;28;20070;-84
2021/12/15 00:03:27;;;;;;;149.90;50.13;;;10.00;99.90;;;;;;4940080;28;20074;-84
2021/12/15 00:05:53;;;;;;;144.20;50.45;;;10.00;99.90;;;;;;4891477;29;20186;-83
2021/12/15 00:08:20;;;;;;;147.60;50.38;;;10.00;99.90;;;;;;4928625;29;20067;-83
2021/12/15 00:10:48;;;;;;;142.50;51.58;;;10.00;99.90;;;;;;4911149;28;20103;-83
2021/12/15 00:13:15;;;;;;;143.05;49.13;;;10.00;99.90;;;;;;4930337;29;20063;-83
2021/12/15 00:15:42;;;;;;;141.98;50.40;;;10.00;99.90;;;;;;4937551;28;20043;-84
2021/12/15 00:18:08;;;;;;;146.75;50.28;;;10.00;99.90;;;;;;4909771;29;20126;-83
2021/12/15 00:20:35;;;;;;;139.68;50.60;;;10.00;99.90;;;;;;4919432;28;20416;-83
2021/12/15 00:23:02;;;;;;;132.38;50.03;;;10.00;99.90;;;;;;4930773;28;20051;-82
2021/12/15 00:25:31;;;;;;;129.70;49.22;;;10.00;99.90;;;;;;4930237;28;20077;-82
2021/12/15 00:27:58;;;;;;;126.15;49.60;;;10.00;99.90;;;;;;4904501;29;20217;-84
2021/12/15 00:30:24;;;;;;;138.95;50.70;;;10.00;99.90;;;;;;4912755;29;20095;-83
2021/12/15 00:32:50;;;;;;;130.40;49.72;;;10.00;99.90;;;;;;4943094;28;20051;-80
2021/12/15 00:35:16;;;;;;;123.25;48.67;;;10.00;99.90;;;;;;4933138;28;20079;-84
2021/12/15 00:37:42;;;;;;;126.10;47.97;;;10.00;99.90;;;;;;4924003;28;20047;-82
2021/12/15 00:40:11;;;;;;;126.95;48.33;;;10.00;99.90;;;;;;4906195;29;20090;-83
2021/12/15 00:42:37;;;;;;;132.65;49.95;;;10.00;99.90;;;;;;4915082;28;20043;-81
2021/12/15 00:45:04;;;;;;;111.82;47.83;;;10.00;99.90;;;;;;4905056;28;20043;-83
2021/12/15 00:47:30;;;;;;;123.03;49.65;;;10.00;99.90;;;;;;4901996;28;20526;-83
2021/12/15 00:49:56;;;;;;;119.97;47.75;;;10.00;99.90;;;;;;4937725;28;20119;-83
2021/12/15 00:52:22;;;;;;;121.22;47.75;;;10.10;99.90;;;;;;4892373;29;20114;-84
2021/12/15 00:54:48;;;;;;;131.18;49.33;;;10.10;99.90;;;;;;4902766;28;20043;-83
2021/12/15 00:57:14;;;;;;;125.30;47.20;;;10.00;99.90;;;;;;4934943;28;20051;-83
2021/12/15 00:59:47;;;;;;;132.23;47.70;;;10.00;99.90;;;;;;5083394;27;20417;-84
2021/12/15 01:02:13;;;;;;;116.50;46.70;;;10.00;99.90;;;;;;5025130;28;20040;-85
2021/12/15 01:04:39;;;;;;;131.02;47.65;;;10.00;99.90;;;;;;5006507;28;20418;-81
2021/12/15 01:07:11;;;;;;;142.35;49.17;;;10.00;99.90;;;;;;5007731;28;20359;-82
2021/12/15 01:09:44;;;;;;;125.57;47.30;;;10.00;99.90;;;;;;5039682;28;20513;-83
2021/12/15 01:20:43;;;;;;;143.02;47.35;;;10.00;99.90;;;;;;5055061;28;20384;-81
2021/12/15 01:23:13;;;;;;;140.18;50.03;;;10.10;99.90;;;;;;5040285;28;20660;-80
2021/12/15 01:25:43;;;;;;;141.52;47.67;;;10.00;99.90;;;;;;5055515;28;20036;-82
2021/12/15 01:28:10;;;;;;;143.23;49.75;;;10.00;99.90;;;;;;5041837;28;20051;-82
2021/12/15 01:30:42;;;;;;;138.10;48.35;;;10.00;99.90;;;;;;5025970;28;20052;-84
2021/12/15 01:33:08;;;;;;;146.50;47.93;;;10.00;99.90;;;;;;5043530;28;20376;-82
2021/12/15 01:35:37;;;;;;;150.13;49.58;;;10.00;99.90;;;;;;5036384;28;20118;-83
2021/12/15 01:38:04;;;;;;;133.45;46.38;;;10.00;99.90;;;;;;5025736;28;20075;-82
2021/12/15 01:40:36;;;;;;;138.15;46.92;;;10.10;99.90;;;;;;5070176;28;20117;-83
2021/12/15 01:43:17;;;;;;;126.63;46.78;;;10.10;99.90;;;;;;5038243;28;20040;-81
2021/12/15 01:48:34;;;;;;;116.57;44.67;;;10.10;99.90;;;;;;5047123;28;20036;-84
2021/12/15 01:51:02;;;;;;;124.13;44.72;;;10.10;99.90;;;;;;5034597;28;20444;-83
2021/12/15 01:53:28;;;;;;;129.30;44.20;;;10.10;99.90;;;;;;5034764;28;20459;-83
2021/12/15 01:55:54;;;;;;;130.20;45.92;;;10.10;99.90;;;;;;5005633;28;20067;-84
2021/12/15 01:58:22;;;;;;;111.78;42.65;;;10.10;99.90;;;;;;5027078;28;20033;-84
2021/12/15 02:01:01;;;;;;;111.00;42.67;;;10.10;99.90;;;;;;5019914;28;20581;-84
2021/12/15 02:03:27;;;;;;;119.70;43.13;;;10.10;99.90;;;;;;5049549;28;20052;-84
2021/12/15 02:05:54;;;;;;;124.68;42.20;;;10.10;99.90;;;;;;5019980;28;21078;-83
2021/12/15 02:08:21;;;;;;;119.07;42.80;;;10.20;99.90;;;;;;5054464;28;20110;-83
2021/12/15 02:10:49;;;;;;;116.40;43.50;;;10.20;99.90;;;;;;5039524;28;20051;-83
2021/12/15 02:13:17;;;;;;;116.20;40.65;;;10.20;99.90;;;;;;5019759;28;21325;-83
2021/12/15 02:15:48;;;;;;;112.90;40.22;;;10.20;99.90;;;;;;5026867;28;20213;-81
2021/12/15 02:18:18;;;;;;;120.30;42.35;;;10.20;99.90;;;;;;5040641;28;20044;-83
2021/12/15 02:20:54;;;;;;;121.15;43.05;;;10.20;99.90;;;;;;5030194;28;20067;-82
2021/12/15 02:23:31;;;;;;;131.90;43.28;;;10.20;99.90;;;;;;5037804;28;20040;-84
2021/12/15 02:25:59;;;;;;;118.82;42.50;;;10.20;99.90;;;;;;5037853;28;20047;-84
2021/12/15 02:28:26;;;;;;;128.32;43.72;;;10.20;99.90;;;;;;5023840;28;20135;-84
2021/12/15 02:31:18;;;;;;;133.18;42.30;;;10.20;99.90;;;;;;5008522;28;20542;-83
2021/12/15 02:38:52;;;;;;;131.07;42.92;;;10.20;99.90;;;;;;5034294;28;20053;-83
2021/12/15 02:41:20;;;;;;;114.63;39.97;;;10.20;99.90;;;;;;5006588;28;20067;-82
2021/12/15 02:44:05;;;;;;;115.05;41.30;;;10.20;99.90;;;;;;5032195;28;20099;-83
2021/12/15 02:46:34;;;;;;;129.45;42.65;;;10.20;99.90;;;;;;5016264;28;20040;-83
2021/12/15 02:49:01;;;;;;;116.75;42.35;;;10.20;99.90;;;;;;5035940;28;20048;-82
2021/12/15 02:51:28;;;;;;;113.20;41.75;;;10.20;99.90;;;;;;5023015;28;20044;-84
2021/12/15 02:53:59;;;;;;;113.07;42.70;;;10.20;99.90;;;;;;5008946;28;20043;-83
2021/12/15 02:56:25;;;;;;;111.13;39.25;;;10.20;99.90;;;;;;5005862;28;20037;-83
2021/12/15 02:58:57;;;;;;;102.35;39.10;;;10.20;99.90;;;;;;5008103;28;20165;-83
2021/12/15 03:01:41;;;;;;;110.07;40.58;;;10.20;99.90;;;;;;5020720;28;20131;-84
2021/12/15 03:04:17;;;;;;;110.05;40.75;;;10.20;99.90;;;;;;5023978;28;20092;-83
2021/12/15 03:07:50;;;;;;;104.35;39.88;;;10.20;99.90;;;;;;5029126;28;20039;-84
2021/12/15 03:15:29;;;;;;;116.50;40.65;;;10.20;99.90;;;;;;5036761;28;20064;-81
2021/12/15 03:18:13;;;;;;;119.97;41.53;;;10.20;99.90;;;;;;5016632;28;20119;-84
2021/12/15 03:20:49;;;;;;;116.43;40.40;;;10.20;99.90;;;;;;5045640;28;20132;-81
2021/12/15 03:23:37;;;;;;;104.93;40.63;;;10.20;99.90;;;;;;5024944;28;20114;-84
2021/12/15 03:26:04;;;;;;;110.43;40.30;;;10.20;99.90;;;;;;5034355;28;20098;-83
2021/12/15 03:39:24;;;;;;;120.10;43.33;;;10.20;99.90;;;;;;5049617;28;20054;-84
2021/12/15 03:41:57;;;;;;;121.60;42.90;;;10.20;99.90;;;;;;4999939;28;20033;-83
2021/12/15 03:44:46;;;;;;;;;;;;;;;;;;;;;
2021/12/15 03:47:26;;;;;;;120.05;42.97;;;10.20;99.90;;;;;;5036307;28;20048;-83
2021/12/15 03:49:55;;;;;;;112.57;41.88;;;10.20;99.90;;;;;;5035468;28;20036;-82
2021/12/15 03:52:22;;;;;;;122.82;43.17;;;10.20;99.90;;;;;;5014807;28;20559;-83
2021/12/15 03:54:48;;;;;;;128.95;43.90;;;10.20;99.90;;;;;;5004723;28;20472;-82
2021/12/15 03:57:16;;;;;;;112.30;42.33;;;10.20;99.90;;;;;;5017659;28;20122;-83
2021/12/15 03:59:46;;;;;;;121.72;44.67;;;10.20;99.90;;;;;;5025381;28;20146;-84
2021/12/15 04:02:16;;;;;;;124.15;44.95;;;10.20;99.90;;;;;;5020846;28;20029;-83
2021/12/15 04:04:43;;;;;;;113.45;43.00;;;10.20;99.90;;;;;;5029410;28;20045;-84
2021/12/15 04:07:12;;;;;;;129.98;44.45;;;10.10;99.90;;;;;;5019886;28;20399;-84
2021/12/15 04:09:43;;;;;;;120.57;44.50;;;10.20;99.90;;;;;;5038425;28;20044;-84
2021/12/15 04:12:10;;;;;;;116.70;45.72;;;10.20;99.90;;;;;;5015889;28;21349;-85
2021/12/15 04:14:44;;;;;;;122.65;47.40;;;10.20;99.90;;;;;;5004532;28;20439;-85
2021/12/15 04:17:26;;;;;;;121.20;46.83;;;10.20;99.90;;;;;;4988806;28;20040;-84
2021/12/15 04:20:10;;;;;;;126.13;46.40;;;10.20;99.90;;;;;;5019630;28;21390;-85
2021/12/15 04:22:36;;;;;;;129.80;47.50;;;10.20;99.90;;;;;;5034259;28;20471;-84
2021/12/15 04:25:08;;;;;;;131.57;46.38;;;10.20;99.90;;;;;;4991340;28;20174;-84
2021/12/15 04:27:38;;;;;;;127.30;48.20;;;10.20;99.90;;;;;;5021429;28;20407;-85
2021/12/15 04:30:09;;;;;;;133.88;48.72;;;10.20;99.90;;;;;;5004555;28;20040;-82
2021/12/15 04:32:43;;;;;;;140.63;49.85;;;10.20;99.90;;;;;;5025441;28;20041;-84
2021/12/15 04:35:10;;;;;;;129.90;48.20;;;10.10;99.90;;;;;;5038771;28;20045;-84
2021/12/15 04:37:37;;;;;;;126.90;47.65;;;10.10;99.90;;;;;;5010794;28;20052;-83
2021/12/15 04:40:05;;;;;;;121.72;47.40;;;10.10;99.90;;;;;;5032737;28;20127;-84
2021/12/15 04:42:32;;;;;;;129.45;48.30;;;10.10;99.90;;;;;;5039672;28;20049;-84
2021/12/15 04:44:58;;;;;;;134.20;50.00;;;10.10;99.90;;;;;;5033235;28;20158;-84
2021/12/15 04:47:30;;;;;;;136.77;50.22;;;10.00;99.90;;;;;;5004237;28;20079;-86
2021/12/15 04:49:57;;;;;;;125.68;48.22;;;10.10;99.90;;;;;;5005108;28;20032;-85
2021/12/15 04:52:28;;;;;;;146.77;50.55;;;10.10;99.90;;;;;;5022865;28;20051;-82
2021/12/15 04:54:59;;;;;;;137.55;50.42;;;10.10;99.90;;;;;;5028700;28;20406;-83
2021/12/15 04:57:44;;;;;;;126.75;50.83;;;10.10;99.90;;;;;;5004236;28;20245;-84
2021/12/15 05:00:16;;;;;;;129.65;50.28;;;10.10;99.90;;;;;;5031200;28;20379;-82
2021/12/15 05:02:42;;;;;;;127.15;49.03;;;10.10;99.90;;;;;;5029451;28;20033;-84
2021/12/15 05:05:15;;;;;;;132.82;50.85;;;10.10;99.90;;;;;;5024237;28;20029;-84
2021/12/15 05:07:59;;;;;;;128.13;50.85;;;10.10;99.90;;;;;;5035035;28;20044;-84
2021/12/15 05:10:26;;;;;;;120.65;48.75;;;10.10;99.90;;;;;;4990517;28;20446;-82
2021/12/15 05:12:52;;;;;;;129.27;50.65;;;10.10;99.90;;;;;;5015613;28;20521;-83
2021/12/15 05:15:19;;;;;;;125.35;50.53;;;10.10;99.90;;;;;;5001511;28;20395;-82
2021/12/15 05:17:46;;;;;;;133.27;51.00;;;10.10;99.90;;;;;;5022178;28;21230;-81
2021/12/15 05:20:12;;;;;;;128.68;50.22;;;10.10;99.90;;;;;;5002782;28;20052;-82
2021/12/15 05:22:38;;;;;;;130.20;49.63;;;10.10;99.90;;;;;;5018032;28;20040;-84
2021/12/15 05:25:07;;;;;;;124.63;49.53;;;10.10;99.90;;;;;;5015522;28;20490;-83
2021/12/15 05:27:34;;;;;;;136.15;52.25;;;10.10;99.90;;;;;;5017325;28;20098;-83
2021/12/15 05:29:59;;;;;;;120.00;48.47;;;10.10;99.90;;;;;;5034840;28;20056;-84
2021/12/15 05:32:26;;;;;;;119.97;51.50;;;10.10;99.90;;;;;;5009630;28;20179;-82
2021/12/15 05:34:59;;;;;;;119.82;51.38;;;10.10;99.90;;;;;;5001485;28;20048;-86
2021/12/15 05:37:25;;;;;;;119.05;48.28;;;10.10;99.90;;;;;;5011135;28;20032;-82
2021/12/15 05:39:58;;;;;;;121.75;51.55;;;10.10;99.90;;;;;;5025461;28;20028;-83
2021/12/15 05:42:28;;;;;;;130.10;51.83;;;10.10;99.90;;;;;;5024905;28;20081;-82
2021/12/15 05:44:57;;;;;;;123.95;50.58;;;10.10;99.90;;;;;;5018575;28;20146;-85
2021/12/15 05:47:25;;;;;;;123.30;51.25;;;10.10;99.90;;;;;;5002569;28;20032;-83
2021/12/15 05:49:53;;;;;;;123.03;51.40;;;10.10;99.90;;;;;;5019875;28;20066;-83
2021/12/15 05:52:19;;;;;;;133.30;53.05;;;10.10;99.90;;;;;;5023744;28;20036;-83
2021/12/15 05:54:46;;;;;;;132.30;52.42;;;10.10;99.90;;;;;;5016556;28;20315;-84
2021/12/15 05:57:40;;;;;;;128.27;52.20;;;10.10;99.90;;;;;;5049262;28;20029;-83
2021/12/15 06:00:25;;;;;;;116.95;49.17;;;10.10;99.90;;;;;;4994828;28;20075;-80
2021/12/15 06:03:25;;;;;;;116.88;51.00;;;10.20;99.90;;;;;;4991680;28;20045;-84
2021/12/15 06:06:04;;;;;;;125.47;51.03;;;10.10;99.90;;;;;;5011128;28;20041;-84
2021/12/15 06:08:39;;;;;;;119.55;48.70;;;10.10;99.90;;;;;;5006698;28;20422;-84
2021/12/15 06:12:15;;;;;;;;;;;;;;;;;;;;;
2021/12/15 06:15:12;;;;;;;121.63;50.47;;;10.10;99.90;;;;;;5023737;28;20061;-83
2021/12/15 06:17:51;;;;;;;128.15;52.40;;;10.10;99.90;;;;;;5009907;28;20046;-85
2021/12/15 06:20:18;;;;;;;111.53;49.55;;;10.10;99.90;;;;;;4990624;28;20049;-84
2021/12/15 06:22:47;;;;;;;115.85;51.50;;;10.10;99.90;;;;;;4985858;28;20041;-84
2021/12/15 06:25:16;;;;;;;132.05;52.90;;;10.10;99.90;;;;;;4988637;28;20042;-84
2021/12/15 06:28:00;;;;;;;124.57;52.67;;;10.10;99.90;;;;;;4988495;28;20037;-84
2021/12/15 06:30:26;;;;;;;119.22;50.33;;;10.10;99.90;;;;;;5008313;28;20064;-83
2021/12/15 06:32:51;;;;;;;124.28;52.75;;;10.10;99.90;;;;;;5025381;28;20403;-82
2021/12/15 06:35:38;;;;;;;127.13;53.28;;;10.10;99.90;;;;;;5011250;28;20538;-85
2021/12/15 06:38:06;;;;;;;120.70;52.22;;;10.10;99.90;;;;;;5033963;28;20115;-84
2021/12/15 06:40:35;;;;;;;126.85;50.50;;;10.10;99.90;;;;;;5019212;28;20108;-84
2021/12/15 06:43:01;;;;;;;116.13;51.63;;;10.10;99.90;;;;;;5023535;28;20539;-83
2021/12/15 06:45:35;;;;;;;113.45;45.97;;;10.10;99.90;;;;;;5023899;28;20044;-83
2021/12/15 06:59:33;;;;;;;119.18;51.17;;;10.10;99.90;;;;;;5042906;28;20096;-84
2021/12/15 07:02:08;;;;;;;126.68;52.47;;;10.10;99.90;;;;;;5036689;28;20128;-87
2021/12/15 07:04:34;;;;;;;119.20;50.60;;;10.10;99.90;;;;;;5007612;28;20028;-86
2021/12/15 07:07:01;;;;;;;109.32;46.70;;;10.10;99.90;;;;;;5047106;28;20039;-83
2021/12/15 07:09:27;;;;;;;117.03;50.95;;;10.10;99.90;;;;;;5001435;28;20048;-87
2021/12/15 07:11:58;;;;;;;119.80;51.55;;;10.10;99.90;;;;;;5016935;28;20037;-85
2021/12/15 07:14:25;;;;;;;116.78;49.88;;;10.10;99.90;;;;;;5023066;28;20090;-83
2021/12/15 07:16:55;;;;;;;120.45;50.30;;;10.10;99.90;;;;;;5026004;28;20119;-84
2021/12/15 07:20:29;;;;;;;114.07;50.15;;;10.10;99.90;;;;;;4996356;28;20502;-85
2021/12/15 07:22:28;;;;;;;115.13;49.65;;;10.10;99.90;;;;;;5015573;28;20498;-84
2021/12/15 07:24:57;;;;;;;109.45;48.10;;;10.10;99.90;;;;;;5019790;28;20479;-83
2021/12/15 07:27:23;;;;;;;107.18;47.90;;;10.10;99.90;;;;;;5003677;28;20045;-84
2021/12/15 07:30:00;;;;;;;106.28;46.90;;;10.10;99.90;;;;;;5022392;28;21134;-85
2021/12/15 07:32:26;;;;;;;108.07;48.20;;;10.10;99.90;;;;;;5033455;28;20040;-84
2021/12/15 07:34:59;;;;;;;106.07;47.63;;;10.20;99.90;;;;;;5004986;28;20052;-85
2021/12/15 07:37:37;;;;;;;;;;;;;;;;;;;;;
2021/12/15 07:40:10;;;;;;;107.22;47.88;;;10.10;99.90;;;;;;5038636;28;20083;-83
2021/12/15 07:42:41;;;;;;;111.72;46.92;;;10.10;99.90;;;;;;5017135;28;20357;-83
2021/12/15 07:45:11;;;;;;;108.63;47.28;;;10.20;99.90;;;;;;5005153;28;20163;-81
2021/12/15 07:47:45;;;;;;;103.38;47.22;;;10.20;99.90;;;;;;5016625;28;20040;-84
2021/12/15 07:50:10;;;;;;;109.88;46.85;;;10.20;99.90;;;;;;5013016;28;20079;-84
2021/12/15 07:52:36;;;;;;;109.13;46.65;;;10.20;99.90;;;;;;5018391;28;20486;-83
2021/12/15 07:55:09;;;;;;;102.18;44.70;;;10.20;99.90;;;;;;5006762;28;20120;-84
2021/12/15 07:57:42;;;;;;;94.32;44.65;;;10.10;99.90;;;;;;5026643;28;20037;-84
2021/12/15 08:00:10;;;;;;;98.60;44.55;;;10.20;99.90;;;;;;5034615;28;20045;-85
2021/12/15 08:02:42;;;;;;;102.28;44.58;;;10.10;99.90;;;;;;5027581;28;20108;-85
2021/12/15 08:05:09;;;;;;;96.90;43.28;;;10.20;99.90;;;;;;5013574;28;20060;-84
2021/12/15 08:07:35;;;;;;;98.28;43.67;;;10.10;99.90;;;;;;5012492;28;20083;-83
2021/12/15 08:10:06;;;;;;;93.00;43.35;;;10.10;99.90;;;;;;5018666;28;20514;-85
2021/12/15 08:12:32;;;;;;;93.40;44.28;;;10.10;99.90;;;;;;5031098;28;20024;-84
2021/12/15 08:14:57;;;;;;;90.72;41.80;;;10.10;99.90;;;;;;5018947;28;20044;-86
2021/12/15 08:17:23;;;;;;;95.35;42.33;;;10.20;99.90;;;;;;5000296;28;20043;-81
2021/12/15 08:19:49;;;;;;;93.80;42.28;;;10.20;99.90;;;;;;5032560;28;20064;-84
2021/12/15 08:22:15;;;;;;;93.97;42.30;;;10.10;99.90;;;;;;5009866;28;20037;-83
2021/12/15 08:24:41;;;;;;;90.95;42.35;;;10.20;99.90;;;;;;5024056;28;20044;-86
2021/12/15 08:27:07;;;;;;;87.93;39.97;;;10.20;99.90;;;;;;4995821;28;20029;-86
2021/12/15 08:29:33;;;;;;;92.40;41.55;;;10.20;99.90;;;;;;5027047;28;20063;-84
2021/12/15 08:31:58;;;;;;;92.97;41.03;;;10.10;99.90;;;;;;5024248;28;20109;-84
2021/12/15 08:34:24;;;;;;;95.60;41.33;;;10.20;99.90;;;;;;4992818;28;20499;-83
2021/12/15 08:36:52;;;;;;;93.75;40.15;;;10.20;99.90;;;;;;5010264;28;20044;-83
2021/12/15 08:39:18;;;;;;;90.55;41.00;;;10.20;99.90;;;;;;5029298;28;20213;-82
2021/12/15 08:41:45;;;;;;;91.97;42.85;;;10.20;99.90;;;;;;5045520;28;20886;-82
2021/12/15 08:44:11;;;;;;;86.68;40.60;;;10.20;99.90;;;;;;5029052;28;20421;-83
2021/12/15 08:46:44;;;;;;;93.05;39.63;;;10.20;99.90;;;;;;5019195;28;20043;-84
2021/12/15 08:49:24;;;;;;;85.05;40.17;;;10.20;99.90;;;;;;5031511;28;20422;-86
2021/12/15 08:51:50;;;;;;;91.65;40.00;;;10.20;99.90;;;;;;5009249;28;20037;-83
2021/12/15 08:54:18;;;;;;;87.60;40.58;;;10.20;99.90;;;;;;5009113;28;20040;-85
2021/12/15 08:56:46;;;;;;;92.20;40.80;;;10.20;99.90;;;;;;5024032;28;20064;-84
2021/12/15 08:59:18;;;;;;;92.88;40.00;;;10.20;99.90;;;;;;5029047;28;20045;-83
2021/12/15 09:01:45;;;;;;;79.63;38.42;;;10.20;99.90;;;;;;5020531;28;20098;-83
2021/12/15 09:04:12;;;;;;;91.88;40.50;;;10.20;99.90;;;;;;4998538;28;20434;-83
2021/12/15 09:06:39;;;;;;;80.28;38.45;;;10.20;99.90;;;;;;5023118;28;20070;-84
2021/12/15 09:09:10;;;;;;;90.18;39.00;;;10.20;99.90;;;;;;5020551;28;20549;-85
2021/12/15 09:11:40;;;;;;;87.65;38.60;;;10.20;99.90;;;;;;5018627;28;20041;-83
2021/12/15 09:14:06;;;;;;;84.55;38.03;;;10.20;99.90;;;;;;5025223;28;20518;-84
2021/12/15 09:16:35;;;;;;;81.53;36.72;;;10.20;99.90;;;;;;5017594;28;20040;-85
2021/12/15 09:19:03;;;;;;;86.07;38.13;;;10.30;99.90;;;;;;5021842;28;20430;-84
2021/12/15 09:21:33;;;;;;;79.75;38.15;;;10.30;99.90;;;;;;5029801;28;20066;-85
2021/12/15 09:24:01;;;;;;;79.45;37.35;;;10.30;99.90;;;;;;5019802;28;20079;-83
2021/12/15 09:26:28;;;;;;;77.72;37.80;;;10.30;99.90;;;;;;5024660;28;20037;-83
2021/12/15 09:28:55;;;;;;;77.90;37.90;;;10.30;99.90;;;;;;5006355;28;20074;-85
2021/12/15 09:31:28;;;;;;;73.05;37.70;;;10.30;99.90;;;;;;5006896;28;20037;-82
2021/12/15 09:33:56;;;;;;;79.55;36.92;;;10.30;99.90;;;;;;5025935;28;20040;-83
2021/12/15 09:36:22;;;;;;;81.40;37.38;;;10.30;99.90;;;;;;5022375;28;20094;-84
2021/12/15 09:38:53;;;;;;;84.60;39.15;;;10.30;99.90;;;;;;5017659;28;20434;-84
2021/12/15 09:41:21;;;;;;;70.03;36.05;;;10.40;99.90;;;;;;5028896;28;20284;-85
2021/12/15 09:43:49;;;;;;;70.85;36.97;;;10.40;99.90;;;;;;5049828;28;20047;-83
2021/12/15 09:46:31;;;;;;;69.60;35.78;;;10.40;99.90;;;;;;5014179;28;20041;-84
2021/12/15 10:03:46;;;;;;;65.60;32.58;;;10.50;99.90;;;;;;5040674;28;20036;-85
2021/12/15 10:06:27;;;;;;;65.00;33.55;;;10.50;99.90;;;;;;5046345;28;20594;-85
2021/12/15 10:11:54;;;;;;;59.38;31.88;;;10.50;99.90;;;;;;5041235;28;20048;-85
2021/12/15 10:17:39;;;;;;;67.45;33.38;;;10.60;99.90;;;;;;5037970;28;20188;-83
2021/12/15 10:20:07;;;;;;;65.40;30.85;;;10.60;99.90;;;;;;5026219;28;20041;-83
2021/12/15 10:22:45;;;;;;;66.78;32.75;;;10.60;99.90;;;;;;5043393;28;20036;-85
2021/12/15 10:25:16;;;;;;;64.72;29.98;;;10.70;99.90;;;;;;5023190;28;20454;-83
2021/12/15 10:27:53;;;;;;;57.90;30.33;;;10.70;99.90;;;;;;5059588;28;20044;-86
2021/12/15 10:30:39;;;;;;;56.70;31.00;;;10.70;99.90;;;;;;5019831;28;20045;-85
2021/12/15 10:33:21;;;;;;;56.60;30.10;;;10.70;99.90;;;;;;5000685;28;20123;-83
2021/12/15 10:35:54;;;;;;;57.38;28.38;;;10.70;99.90;;;;;;5008198;28;20055;-84
2021/12/15 10:38:53;;;;;;;55.55;28.17;;;10.70;99.90;;;;;;5007239;28;20073;-87
2021/12/15 10:41:31;;;;;;;61.25;28.85;;;10.70;99.90;;;;;;5015436;28;20049;-83
2021/12/15 10:43:57;;;;;;;51.20;28.80;;;10.70;99.90;;;;;;5006611;28;20033;-85
2021/12/15 10:46:34;;;;;;;60.88;29.85;;;10.80;99.90;;;;;;5006749;28;20037;-86
2021/12/15 10:49:10;;;;;;;58.35;30.27;;;10.80;99.90;;;;;;5022699;28;20044;-82
2021/12/15 10:51:45;;;;;;;53.58;27.45;;;10.70;99.90;;;;;;5014144;28;20053;-86
2021/12/15 10:54:19;;;;;;;60.83;29.48;;;10.70;99.90;;;;;;5011954;28;20037;-85
2021/12/15 10:57:04;;;;;;;54.47;28.00;;;10.80;99.90;;;;;;5011201;28;20045;-85
2021/12/15 10:59:33;;;;;;;60.03;30.00;;;10.80;99.90;;;;;;5012166;28;20048;-83
2021/12/15 11:02:09;;;;;;;57.20;29.98;;;10.80;99.90;;;;;;5016172;28;20059;-81
2021/12/15 11:04:40;;;;;;;60.78;29.02;;;10.80;99.90;;;;;;5016768;28;20121;-84
2021/12/15 11:07:17;;;;;;;50.00;26.77;;;10.80;99.90;;;;;;5011409;28;20048;-86
2021/12/15 11:10:04;;;;;;;48.67;25.20;;;10.90;99.90;;;;;;5003151;28;20517;-87
2021/12/15 11:15:18;;;;;;;51.42;26.83;;;10.90;99.90;;;;;;4979361;28;20507;-83
2021/12/15 11:18:17;;;;;;;50.40;25.73;;;11.00;99.90;;;;;;4975130;28;20081;-84
2021/12/15 11:20:49;;;;;;;47.58;25.48;;;11.00;99.90;;;;;;4979657;28;20133;-85
2021/12/15 11:23:20;;;;;;;50.42;26.25;;;11.00;99.90;;;;;;4985974;28;20034;-87
2021/12/15 11:25:58;;;;;;;49.60;26.88;;;11.00;99.90;;;;;;4992042;28;20096;-84
2021/12/15 11:28:59;;;;;;;45.63;25.17;;;11.00;99.90;;;;;;5005508;28;20041;-85
2021/12/15 11:31:31;;;;;;;44.50;23.80;;;11.00;99.90;;;;;;4993409;28;20038;-83
2021/12/15 11:34:00;;;;;;;44.70;23.55;;;11.00;99.90;;;;;;4981333;28;20489;-86
2021/12/15 11:36:44;;;;;;;46.70;24.80;;;11.00;99.90;;;;;;5003610;28;20037;-83
2021/12/15 11:39:20;;;;;;;49.85;23.88;;;11.00;99.90;;;;;;4990362;28;20046;-85
2021/12/15 11:41:52;;;;;;;49.17;24.45;;;11.00;99.90;;;;;;4974146;28;20120;-84
2021/12/15 11:44:20;;;;;;;42.35;22.42;;;11.00;99.90;;;;;;4968758;28;20042;-85
2021/12/15 11:46:53;;;;;;;47.10;23.88;;;11.00;99.90;;;;;;4975878;28;20069;-87
2021/12/15 11:49:35;;;;;;;42.30;21.25;;;10.90;99.90;;;;;;4984712;28;21499;-86
2021/12/15 11:52:08;;;;;;;46.55;21.98;;;11.00;99.90;;;;;;4974333;28;20527;-84
2021/12/15 11:54:37;;;;;;;42.20;21.92;;;11.00;99.90;;;;;;4964018;28;20049;-85
2021/12/15 11:57:23;;;;;;;41.83;22.10;;;11.00;99.90;;;;;;4971261;28;20088;-85
2021/12/15 11:59:52;;;;;;;36.10;18.77;;;11.00;99.90;;;;;;4982509;28;20042;-83
2021/12/15 12:02:25;;;;;;;28.55;15.48;;;11.00;99.90;;;;;;5004766;28;20100;-85
2021/12/15 12:04:58;;;;;;;30.05;17.08;;;11.00;99.90;;;;;;5001190;28;20159;-84
2021/12/15 12:07:30;;;;;;;33.50;16.77;;;11.00;99.90;;;;;;4981099;28;20062;-83
2021/12/15 12:10:01;;;;;;;35.65;17.15;;;11.00;99.90;;;;;;4986315;28;20034;-86
2021/12/15 12:12:35;;;;;;;35.95;18.63;;;11.00;99.90;;;;;;4988443;28;20088;-85
2021/12/15 12:15:03;;;;;;;34.83;19.17;;;11.00;99.90;;;;;;4985916;28;20042;-85
2021/12/15 12:17:36;;;;;;;42.70;22.20;;;10.90;99.90;;;;;;5003462;28;20072;-85
2021/12/15 12:20:16;;;;;;;37.60;19.77;;;10.90;99.90;;;;;;4985401;28;20045;-84
2021/12/15 12:22:45;;;;;;;42.40;22.08;;;10.90;99.90;;;;;;4977327;28;20424;-85
2021/12/15 12:25:23;;;;;;;45.53;23.40;;;10.90;99.90;;;;;;4976188;28;20065;-85
2021/12/15 12:27:50;;;;;;;44.47;23.00;;;10.90;99.90;;;;;;4994560;28;20102;-84
2021/12/15 12:30:23;;;;;;;47.75;21.98;;;10.90;99.90;;;;;;4989590;28;20037;-83
2021/12/15 12:32:50;;;;;;;34.55;19.77;;;10.80;99.90;;;;;;4995449;28;20052;-86
2021/12/15 12:35:19;;;;;;;35.92;19.27;;;10.90;99.90;;;;;;4966517;28;20038;-82
2021/12/15 12:37:53;;;;;;;36.83;18.80;;;10.90;99.90;;;;;;4982245;28;20046;-85
2021/12/15 12:40:30;;;;;;;37.55;18.50;;;11.00;99.90;;;;;;4971874;28;20176;-84
2021/12/15 12:42:57;;;;;;;36.80;19.10;;;11.00;99.90;;;;;;4969861;28;20442;-86
2021/12/15 12:45:36;;;;;;;31.80;18.33;;;11.00;99.90;;;;;;4971733;28;20041;-84
2021/12/15 12:48:36;;;;;;;36.20;18.10;;;11.00;99.90;;;;;;4972574;28;20042;-83
2021/12/15 12:59:33;;;;;;;33.25;16.48;;;11.00;99.90;;;;;;4981771;28;20075;-85
2021/12/15 13:02:06;;;;;;;28.77;13.68;;;11.10;99.90;;;;;;4982686;28;20085;-88
2021/12/15 13:04:37;;;;;;;;;;;11.00;99.90;;;;;;4973343;28;20049;-85
2021/12/15 13:07:03;;;;;;;29.05;14.10;;;11.10;99.90;;;;;;4967715;28;20435;-87
2021/12/15 13:09:51;;;;;;;26.70;13.48;;;11.10;99.90;;;;;;4995241;28;20096;-88
2021/12/15 13:12:26;;;;;;;28.65;13.65;;;11.00;99.90;;;;;;4995929;28;20052;-84
2021/12/15 13:14:55;;;;;;;29.25;13.93;;;11.00;99.90;;;;;;4996754;28;20057;-85
2021/12/15 13:17:36;;;;;;;28.15;14.23;;;10.90;99.90;;;;;;4985979;28;20076;-87
2021/12/15 13:20:22;;;;;;;26.73;13.48;;;10.90;99.90;;;;;;4980962;28;20195;-83
2021/12/15 13:29:26;;;;;;;27.17;12.43;;;10.80;99.90;;;;;;4989271;28;20072;-87
2021/12/15 13:31:59;;;;;;;26.15;12.35;;;10.80;99.90;;;;;;4967253;28;20120;-84
2021/12/15 13:34:50;;;;;;;21.88;11.68;;;10.80;99.90;;;;;;4969971;28;20257;-85
2021/12/15 13:37:50;;;;;;;20.85;10.40;;;10.80;99.90;;;;;;4962090;28;20042;-88
2021/12/15 13:40:42;;;;;;;24.08;11.00;;;10.70;99.90;;;;;;4968521;28;20378;-84
2021/12/15 13:43:33;;;;;;;21.52;11.05;;;10.70;99.90;;;;;;4968259;28;20078;-87
2021/12/15 13:46:04;;;;;;;20.98;9.73;;;10.70;99.90;;;;;;4981779;28;20045;-86
2021/12/15 13:49:08;;;;;;;18.70;8.98;;;10.80;99.90;;;;;;4976275;28;20145;-85
2021/12/15 13:52:07;;;;;;;17.83;6.75;;;10.80;99.90;;;;;;4987087;28;20133;-89
2021/12/15 13:54:33;;;;;;;21.60;7.47;;;10.80;99.90;;;;;;4988288;28;20188;-86
2021/12/15 13:57:11;;;;;;;17.73;7.63;;;10.70;99.90;;;;;;5000074;28;20038;-85
2021/12/15 13:59:54;;;;;;;18.80;7.20;;;10.70;99.90;;;;;;4984427;28;20045;-88
2021/12/15 14:03:02;;;;;;;18.25;7.05;;;10.60;99.90;;;;;;4977894;28;20547;-86
2021/12/15 14:06:00;;;;;;;18.00;6.95;;;10.60;99.90;;;;;;4940830;28;20046;-85
2021/12/15 14:08:28;;;;;;;16.23;7.40;;;10.50;99.90;;;;;;4987162;28;20049;-87
2021/12/15 14:10:58;;;;;;;18.60;8.45;;;10.50;99.90;;;;;;4992189;28;20132;-85
2021/12/15 14:14:08;;;;;;;23.58;8.30;;;10.50;99.90;;;;;;4978680;28;20053;-87
2021/12/15 14:16:43;;;;;;;19.67;8.15;;;10.50;99.90;;;;;;4970689;28;20117;-82